Time;durP1;ratioP1;P1;durP2;ratioP2;P2;SDS_P1;SDS_P2;PMS_P1;PMS_P2;Temp;Humidity;BMP_temperature;BMP_pressure;BME280_temperature;BME280_humidity;BME280_pressure;Samples;Min_cycle;Max_cycle;Signal;HPM_P1;HPM_P2
2023/05/02 00:01:32;;;;;;;6.17;2.37;;;10.10;99.90;;;10.81;100.00;98314.84;4920579;29;20481;-75
2023/05/02 00:04:01;;;;;;;5.10;1.93;;;10.20;99.90;;;10.80;100.00;98308.00;4920460;29;20473;-75
2023/05/02 00:06:31;;;;;;;2.17;1.97;;;10.20;99.90;;;10.78;100.00;98316.03;4920195;29;20466;-75
2023/05/02 00:09:02;;;;;;;5.10;2.30;;;10.10;99.90;;;10.76;100.00;98312.00;4921129;29;20486;-75
2023/05/02 00:11:32;;;;;;;3.17;2.30;;;10.10;99.90;;;10.76;100.00;98309.38;4920506;29;20518;-80
2023/05/02 00:14:02;;;;;;;3.40;2.23;;;10.00;99.90;;;10.76;100.00;98307.53;4921761;29;20837;-75
2023/05/02 00:16:31;;;;;;;3.77;1.87;;;10.00;99.90;;;10.70;100.00;98308.28;4922448;29;20954;-74
2023/05/02 00:19:02;;;;;;;2.73;2.50;;;10.00;99.90;;;10.67;100.00;98307.81;4918414;29;21244;-75
2023/05/02 00:21:33;;;;;;;7.93;2.33;;;10.00;99.90;;;10.65;100.00;98309.81;4920316;29;20467;-75
2023/05/02 00:24:04;;;;;;;2.83;2.53;;;9.90;99.90;;;10.70;100.00;98299.63;4920843;29;20499;-75
2023/05/02 00:26:34;;;;;;;3.03;2.40;;;9.90;99.90;;;10.65;100.00;98312.44;4922289;29;20462;-75
2023/05/02 00:29:05;;;;;;;4.63;2.33;;;9.90;99.90;;;10.64;100.00;98314.22;4920359;29;21070;-75
2023/05/02 00:31:34;;;;;;;2.37;2.00;;;9.90;99.90;;;10.63;100.00;98310.00;4920746;29;20566;-75
2023/05/02 00:34:05;;;;;;;3.70;2.60;;;9.80;99.90;;;10.63;100.00;98306.56;4920492;29;20919;-76
2023/05/02 00:36:34;;;;;;;2.60;2.30;;;9.80;99.90;;;10.58;100.00;98312.34;4922178;29;20474;-74
2023/05/02 00:39:05;;;;;;;2.57;1.90;;;9.80;99.90;;;10.55;100.00;98316.13;4922273;29;20490;-75
2023/05/02 00:41:34;;;;;;;2.50;1.97;;;9.80;99.90;;;10.51;100.00;98319.28;4917814;29;20737;-75
2023/05/02 00:44:06;;;;;;;6.47;4.27;;;9.80;99.90;;;10.45;100.00;98310.34;4920831;29;20515;-75
2023/05/02 00:46:35;;;;;;;14.87;7.97;;;9.70;99.90;;;10.36;100.00;98311.44;4919676;29;20977;-75
2023/05/02 00:49:04;;;;;;;2.43;2.23;;;9.70;99.90;;;10.35;100.00;98306.38;4921370;29;21177;-75
2023/05/02 00:51:34;;;;;;;2.63;2.43;;;9.60;99.90;;;10.37;100.00;98309.63;4922020;29;20466;-75
2023/05/02 00:54:06;;;;;;;2.40;1.80;;;9.60;99.90;;;10.33;100.00;98310.97;4923658;29;20509;-75
2023/05/02 00:56:37;;;;;;;2.33;2.10;;;9.60;99.90;;;10.29;100.00;98315.75;4924361;29;20497;-75
2023/05/02 00:59:09;;;;;;;2.37;2.17;;;9.60;99.90;;;10.31;100.00;98323.41;4928605;29;20565;-75
2023/05/02 01:01:50;;;;;;;3.27;2.63;;;9.50;99.90;;;10.32;100.00;98314.56;4926929;29;20484;-74
2023/05/02 01:04:38;;;;;;;3.20;2.40;;;9.50;99.90;;;10.25;100.00;98322.31;4926747;29;21027;-75
2023/05/02 01:07:37;;;;;;;4.27;2.23;;;9.50;99.90;;;10.21;100.00;98318.44;4927242;29;20503;-75
2023/05/02 01:10:23;;;;;;;5.93;2.50;;;9.50;99.90;;;10.25;100.00;98319.69;4928270;29;20497;-75
2023/05/02 01:13:03;;;;;;;3.37;2.03;;;9.40;99.90;;;10.21;100.00;98322.84;4925960;29;20501;-75
2023/05/02 01:15:38;;;;;;;5.80;2.47;;;9.40;99.90;;;10.19;100.00;98325.66;4926792;29;20982;-75
2023/05/02 01:18:12;;;;;;;3.10;2.50;;;9.40;99.90;;;10.20;100.00;98331.69;4928267;29;21028;-75
2023/05/02 01:20:44;;;;;;;4.63;2.90;;;9.40;99.90;;;10.16;100.00;98331.22;4928452;29;20489;-75
2023/05/02 01:23:29;;;;;;;4.10;2.40;;;9.40;99.90;;;10.13;100.00;98326.31;4927209;29;20478;-75
2023/05/02 01:26:19;;;;;;;2.13;1.93;;;9.30;99.90;;;10.04;100.00;98332.59;4927282;29;20511;-75
2023/05/02 01:29:02;;;;;;;3.07;2.60;;;9.30;99.90;;;10.02;100.00;98335.41;4926148;29;20474;-75
2023/05/02 01:31:37;;;;;;;5.60;2.60;;;9.30;99.90;;;10.02;100.00;98334.59;4926234;29;20924;-75
2023/05/02 01:34:12;;;;;;;2.50;2.30;;;9.20;99.90;;;9.96;100.00;98335.28;4926665;29;20476;-75
2023/05/02 01:36:45;;;;;;;4.87;3.43;;;9.20;99.90;;;9.97;100.00;98332.50;4927231;29;20466;-75
2023/05/02 01:39:20;;;;;;;4.50;2.80;;;9.20;99.90;;;9.95;100.00;98339.69;4926438;29;20558;-75
2023/05/02 01:41:52;;;;;;;4.23;2.20;;;9.10;99.90;;;9.92;100.00;98347.06;4925392;29;20988;-75
2023/05/02 01:44:25;;;;;;;6.10;2.73;;;9.10;99.90;;;9.87;100.00;98342.38;4924971;29;20513;-74
2023/05/02 01:46:58;;;;;;;3.93;2.87;;;9.10;99.90;;;9.77;100.00;98344.41;4926509;29;20507;-76
2023/05/02 01:49:31;;;;;;;5.10;2.50;;;9.10;99.90;;;9.74;100.00;98344.75;4925656;29;20462;-74
2023/05/02 01:52:10;;;;;;;3.70;2.73;;;9.00;99.90;;;9.79;100.00;98354.69;4922282;29;20964;-75
2023/05/02 01:54:41;;;;;;;3.83;3.03;;;9.00;99.90;;;9.78;100.00;98363.50;4922426;29;21124;-75
2023/05/02 01:57:12;;;;;;;3.27;2.97;;;9.00;99.90;;;9.79;100.00;98362.53;4926475;29;20518;-75
2023/05/02 01:59:46;;;;;;;8.33;3.43;;;8.90;99.90;;;9.80;100.00;98366.75;4922625;29;20581;-75
2023/05/02 02:02:17;;;;;;;7.07;3.20;;;9.00;99.90;;;9.80;100.00;98371.97;4924413;29;20482;-74
2023/05/02 02:04:49;;;;;;;5.33;3.90;;;8.90;99.90;;;9.75;100.00;98371.69;4927588;29;21088;-75
2023/05/02 02:07:19;;;;;;;6.17;3.30;;;8.90;99.90;;;9.71;100.00;98373.84;4925718;29;20462;-75
2023/05/02 02:09:49;;;;;;;3.60;3.10;;;8.90;99.90;;;9.67;100.00;98382.19;4924673;29;20891;-75
2023/05/02 02:12:27;;;;;;;3.37;3.00;;;8.90;99.90;;;9.64;100.00;98382.53;4924880;29;20478;-74
2023/05/02 02:15:09;;;;;;;9.60;4.03;;;8.90;99.90;;;9.64;100.00;98375.50;4926784;29;20470;-74
2023/05/02 02:17:47;;;;;;;6.23;3.90;;;8.90;99.90;;;9.64;100.00;98382.53;4922161;29;20517;-74
2023/05/02 02:20:19;;;;;;;4.30;3.00;;;8.90;99.90;;;9.58;100.00;98387.44;4919704;29;20478;-74
2023/05/02 02:22:49;;;;;;;4.20;3.33;;;8.80;99.90;;;9.58;100.00;98390.06;4919782;29;20509;-74
2023/05/02 02:25:19;;;;;;;4.77;3.50;;;8.80;99.90;;;9.56;100.00;98389.41;4916408;29;20458;-74
2023/05/02 02:27:50;;;;;;;3.77;3.47;;;8.80;99.90;;;9.59;100.00;98402.13;4920854;29;20459;-74
2023/05/02 02:30:20;;;;;;;4.70;3.93;;;8.80;99.90;;;9.53;100.00;98400.22;4921103;29;20479;-74
2023/05/02 02:32:51;;;;;;;5.80;4.30;;;8.80;99.90;;;9.50;100.00;98399.75;4921251;29;20519;-75
2023/05/02 02:35:21;;;;;;;5.73;4.20;;;8.70;99.90;;;9.49;100.00;98395.50;4920722;29;20490;-74
2023/05/02 02:38:04;;;;;;;5.27;4.07;;;8.70;99.90;;;9.49;100.00;98400.72;4921771;29;20570;-74
2023/05/02 02:40:44;;;;;;;5.37;4.17;;;8.70;99.90;;;9.48;100.00;98405.13;4922176;29;21034;-74
2023/05/02 02:43:33;;;;;;;5.20;4.20;;;8.70;99.90;;;9.47;100.00;98408.72;4920849;29;20490;-74
2023/05/02 02:46:32;;;;;;;4.13;3.53;;;8.70;99.90;;;9.45;100.00;98413.28;4921887;29;20857;-74
2023/05/02 02:49:22;;;;;;;5.63;4.17;;;8.60;99.90;;;9.43;100.00;98425.72;4925306;29;20468;-75
2023/05/02 02:52:02;;;;;;;4.37;3.97;;;8.70;99.90;;;9.47;100.00;98427.00;4923867;29;20562;-75
2023/05/02 02:54:43;;;;;;;4.93;4.13;;;8.60;99.90;;;9.46;100.00;98427.97;4925718;29;20482;-75
2023/05/02 02:57:19;;;;;;;4.47;3.80;;;8.70;99.90;;;9.43;100.00;98427.50;4926740;29;20985;-76
2023/05/02 03:00:02;;;;;;;4.30;3.80;;;8.70;99.90;;;9.41;100.00;98427.66;4925973;29;20477;-75
2023/05/02 03:02:34;;;;;;;6.20;4.57;;;8.70;99.90;;;9.41;100.00;98438.09;4924732;29;20474;-75
2023/05/02 03:05:09;;;;;;;4.53;4.00;;;8.60;99.90;;;9.39;100.00;98434.03;4925290;29;21215;-75
2023/05/02 03:07:40;;;;;;;5.73;4.30;;;8.60;99.90;;;9.41;100.00;98432.06;4924450;29;20467;-75
2023/05/02 03:10:10;;;;;;;4.30;3.87;;;8.60;99.90;;;9.39;100.00;98440.09;4924042;29;20470;-75
2023/05/02 03:12:40;;;;;;;7.60;4.30;;;8.60;99.90;;;9.37;100.00;98433.41;4925271;29;20466;-74
2023/05/02 03:15:29;;;;;;;5.33;4.30;;;8.60;99.90;;;9.31;100.00;98442.72;4925077;29;20474;-76
2023/05/02 03:18:01;;;;;;;4.63;4.13;;;8.50;99.90;;;9.29;100.00;98441.25;4923987;29;20459;-75
2023/05/02 03:20:32;;;;;;;6.50;5.13;;;8.50;99.90;;;9.32;100.00;98430.47;4925240;29;20482;-76
2023/05/02 03:23:01;;;;;;;9.10;5.23;;;8.50;99.90;;;9.31;100.00;98434.88;4925726;29;20585;-76
2023/05/02 03:25:30;;;;;;;6.70;5.20;;;8.50;99.90;;;9.31;100.00;98445.31;4923874;29;21322;-77
2023/05/02 03:28:00;;;;;;;5.10;4.30;;;8.40;99.90;;;9.28;100.00;98440.44;4924966;29;20485;-76
2023/05/02 03:30:28;;;;;;;6.07;4.80;;;8.50;99.90;;;9.28;100.00;98448.28;4925792;29;20545;-76
2023/05/02 03:33:00;;;;;;;10.10;5.20;;;8.50;99.90;;;9.32;100.00;98451.38;4924634;29;20477;-76
2023/05/02 03:35:30;;;;;;;7.50;5.10;;;8.50;99.90;;;9.32;100.00;98446.97;4923478;29;20474;-76
2023/05/02 03:38:01;;;;;;;5.77;4.93;;;8.50;99.90;;;9.28;100.00;98450.88;4925123;29;20462;-76
2023/05/02 03:40:30;;;;;;;9.93;7.27;;;8.50;99.90;;;9.24;100.00;98446.97;4923572;29;20647;-76
2023/05/02 03:43:01;;;;;;;8.03;5.80;;;8.50;99.90;;;9.23;100.00;98455.81;4924266;29;20562;-75
2023/05/02 03:45:31;;;;;;;9.63;6.13;;;8.40;99.90;;;9.21;100.00;98459.53;4925501;29;20454;-76
2023/05/02 03:48:02;;;;;;;5.73;5.13;;;8.40;99.90;;;9.17;100.00;98464.28;4925451;29;20546;-76
2023/05/02 03:50:32;;;;;;;7.67;5.57;;;8.40;99.90;;;9.18;100.00;98471.13;4921994;29;20475;-76
2023/05/02 03:53:02;;;;;;;6.20;5.03;;;8.40;99.90;;;9.14;100.00;98475.06;4920651;29;20523;-76
2023/05/02 03:55:32;;;;;;;11.67;6.50;;;8.30;99.90;;;9.13;100.00;98475.25;4923880;29;20491;-76
2023/05/02 03:58:01;;;;;;;8.40;5.40;;;8.40;99.90;;;9.10;100.00;98468.53;4923402;29;20466;-79
2023/05/02 04:00:33;;;;;;;8.07;5.67;;;8.30;99.90;;;9.08;100.00;98479.16;4920244;29;20477;-76
2023/05/02 04:03:04;;;;;;;5.30;4.30;;;8.30;99.90;;;9.06;100.00;98473.28;4923299;29;20466;-76
2023/05/02 04:05:34;;;;;;;11.70;5.43;;;8.20;99.90;;;9.05;100.00;98481.28;4923334;29;20466;-77
2023/05/02 04:08:05;;;;;;;6.27;4.90;;;8.30;99.90;;;9.05;100.00;98473.47;4920260;29;20904;-76
2023/05/02 04:10:36;;;;;;;9.20;6.30;;;8.30;99.90;;;9.04;100.00;98475.25;4922840;29;20470;-76
2023/05/02 04:13:06;;;;;;;9.53;5.47;;;8.30;99.90;;;9.01;100.00;98474.78;4924551;29;21019;-76
2023/05/02 04:15:35;;;;;;;6.90;5.60;;;8.20;99.90;;;8.96;100.00;98471.84;4921908;29;20514;-76
2023/05/02 04:18:07;;;;;;;10.93;6.37;;;8.20;99.90;;;8.98;100.00;98475.09;4923065;29;20835;-76
2023/05/02 04:20:37;;;;;;;11.40;6.70;;;8.20;99.90;;;8.94;100.00;98481.63;4922266;29;20549;-76
2023/05/02 04:23:07;;;;;;;8.80;6.40;;;8.20;99.90;;;8.87;100.00;98483.28;4926623;29;20469;-76
2023/05/02 04:25:37;;;;;;;11.10;6.73;;;8.20;99.90;;;8.90;100.00;98488.16;4924323;29;20466;-76
2023/05/02 04:28:08;;;;;;;10.40;6.63;;;8.10;99.90;;;8.85;100.00;98485.25;4923943;29;20472;-76
2023/05/02 04:30:38;;;;;;;9.43;7.17;;;8.10;99.90;;;8.86;100.00;98487.66;4923734;29;20466;-76
2023/05/02 04:33:10;;;;;;;15.37;8.50;;;8.10;99.90;;;8.87;100.00;98488.47;4927836;29;20886;-76
2023/05/02 04:35:42;;;;;;;11.20;7.77;;;8.00;99.90;;;8.87;100.00;98488.47;4927602;29;20471;-76
2023/05/02 04:38:12;;;;;;;10.57;7.40;;;8.10;99.90;;;8.84;100.00;98492.25;4928216;29;20470;-76
2023/05/02 04:40:43;;;;;;;11.80;7.13;;;8.10;99.90;;;8.83;100.00;98492.41;4927672;29;20553;-76
2023/05/02 04:43:13;;;;;;;12.07;7.80;;;8.10;99.90;;;8.83;100.00;98497.63;4927574;29;20562;-76
2023/05/02 04:45:43;;;;;;;10.67;7.50;;;8.10;99.90;;;8.80;100.00;98503.97;4927175;29;20521;-77
2023/05/02 04:48:14;;;;;;;13.50;7.50;;;8.10;99.90;;;8.80;100.00;98508.38;4927548;29;20561;-75
2023/05/02 04:50:46;;;;;;;12.30;8.73;;;8.00;99.90;;;8.79;100.00;98517.16;4922924;29;20466;-76
2023/05/02 04:53:15;;;;;;;18.67;9.63;;;8.00;99.90;;;8.80;100.00;98518.81;4925874;29;20474;-76
2023/05/02 04:55:44;;;;;;;16.40;10.30;;;8.00;99.90;;;8.85;100.00;98532.19;4926822;29;20536;-76
2023/05/02 04:58:14;;;;;;;16.30;10.23;;;8.00;99.90;;;8.85;100.00;98537.41;4927908;29;20592;-76
2023/05/02 05:00:43;;;;;;;19.43;10.50;;;8.00;99.90;;;8.86;100.00;98534.59;4927312;29;20553;-75
2023/05/02 05:03:14;;;;;;;16.47;11.10;;;8.10;99.90;;;8.86;100.00;98534.59;4923441;29;20505;-76
2023/05/02 05:05:43;;;;;;;15.40;10.43;;;8.10;99.90;;;8.89;100.00;98536.06;4926533;29;20480;-75
2023/05/02 05:08:12;;;;;;;18.70;11.03;;;8.10;99.90;;;8.93;100.00;98542.59;4923951;29;20503;-76
2023/05/02 05:10:43;;;;;;;23.50;11.23;;;8.10;99.90;;;8.94;100.00;98544.22;4923818;29;20798;-76
2023/05/02 05:13:12;;;;;;;19.00;10.80;;;8.10;99.90;;;8.94;100.00;98544.22;4924708;29;20470;-77
2023/05/02 05:15:43;;;;;;;28.63;12.33;;;8.20;99.90;;;8.96;100.00;98548.28;4925442;29;20470;-75
2023/05/02 05:18:14;;;;;;;15.70;10.77;;;8.20;99.90;;;8.98;100.00;98548.97;4923339;29;20478;-76
2023/05/02 05:20:44;;;;;;;19.87;12.00;;;8.20;99.90;;;9.00;100.00;98556.59;4924853;29;20470;-76
2023/05/02 05:23:14;;;;;;;16.90;11.20;;;8.20;99.90;;;9.04;100.00;98558.72;4924981;29;20835;-75
2023/05/02 05:25:46;;;;;;;17.73;11.43;;;8.30;99.90;;;9.05;100.00;98562.16;4924876;29;20718;-76
2023/05/02 05:28:17;;;;;;;25.60;12.70;;;8.30;99.90;;;9.05;100.00;98569.97;4923579;29;20822;-76
2023/05/02 05:30:47;;;;;;;18.90;12.10;;;8.30;99.90;;;9.10;100.00;98567.69;4923773;29;20474;-76
2023/05/02 05:33:19;;;;;;;18.10;11.10;;;8.30;99.90;;;9.12;100.00;98572.75;4923737;29;20475;-76
2023/05/02 05:35:48;;;;;;;24.07;12.00;;;8.30;99.90;;;9.16;100.00;98574.88;4925313;29;20729;-76
2023/05/02 05:38:18;;;;;;;21.70;12.33;;;8.50;99.90;;;9.20;100.00;98578.75;4923444;29;20566;-76
2023/05/02 05:40:50;;;;;;;17.90;11.93;;;8.50;99.90;;;9.24;100.00;98580.06;4923364;29;21086;-76
2023/05/02 05:43:20;;;;;;;17.13;10.47;;;8.50;99.90;;;9.31;100.00;98586.25;4921928;29;20497;-75
2023/05/02 05:45:52;;;;;;;21.73;10.83;;;8.50;99.90;;;9.36;100.00;98589.19;4923185;29;20482;-75
2023/05/02 05:48:23;;;;;;;18.77;11.37;;;8.50;99.90;;;9.39;100.00;98594.06;4923802;29;20585;-76
2023/05/02 05:50:53;;;;;;;21.00;13.60;;;8.60;99.90;;;9.43;100.00;98584.94;4923041;29;20481;-75
2023/05/02 05:53:22;;;;;;;25.80;15.23;;;8.60;99.90;;;9.48;100.00;98580.00;4923353;29;20474;-76
2023/05/02 05:55:51;;;;;;;28.10;16.20;;;8.70;99.90;;;9.55;100.00;98594.03;4924345;29;21064;-76
2023/05/02 05:58:21;;;;;;;37.13;19.67;;;8.80;99.90;;;9.62;100.00;98591.56;4926317;29;20581;-76
2023/05/02 06:00:51;;;;;;;35.83;18.03;;;8.90;99.90;;;9.70;100.00;98595.94;4925995;29;20474;-76
2023/05/02 06:03:22;;;;;;;41.50;20.80;;;9.00;99.90;;;9.77;100.00;98596.91;4926417;29;20647;-76
2023/05/02 06:05:53;;;;;;;36.80;20.93;;;8.90;99.90;;;9.83;100.00;98596.22;4926943;29;20499;-75
2023/05/02 06:08:23;;;;;;;35.13;17.40;;;9.00;99.90;;;9.91;100.00;98598.81;4922204;29;20499;-76
2023/05/02 06:10:53;;;;;;;29.60;16.57;;;9.10;99.90;;;9.96;100.00;98599.16;4926972;29;20473;-76
2023/05/02 06:13:23;;;;;;;28.23;16.63;;;9.20;99.90;;;10.02;100.00;98601.06;4927220;29;20525;-75
2023/05/02 06:15:54;;;;;;;29.13;17.00;;;9.20;99.90;;;10.09;100.00;98612.47;4925465;29;20463;-76
2023/05/02 06:18:26;;;;;;;36.60;20.87;;;9.30;99.90;;;10.16;100.00;98608.22;4927176;29;20469;-76
2023/05/02 06:20:57;;;;;;;38.20;21.67;;;9.30;99.90;;;10.23;100.00;98614.41;4927525;29;20546;-76
2023/05/02 06:23:28;;;;;;;46.87;23.43;;;9.40;99.90;;;10.33;100.00;98616.81;4924032;29;20506;-76
2023/05/02 06:26:00;;;;;;;42.20;21.40;;;9.50;99.90;;;10.41;100.00;98619.38;4926135;29;20839;-76
2023/05/02 06:28:31;;;;;;;44.27;21.93;;;9.60;99.90;;;10.49;100.00;98614.91;4925497;29;20467;-75
2023/05/02 06:31:02;;;;;;;33.67;18.63;;;9.70;99.90;;;10.57;100.00;98627.94;4925783;29;21027;-76
2023/05/02 06:33:34;;;;;;;36.50;20.23;;;9.80;99.90;;;10.67;100.00;98626.91;4925356;29;20470;-75
2023/05/02 06:36:05;;;;;;;33.90;18.67;;;9.90;99.90;;;10.75;100.00;98632.09;4924290;29;20600;-75
2023/05/02 06:38:36;;;;;;;35.43;19.00;;;10.10;99.90;;;10.81;100.00;98628.78;4922600;29;20489;-75
2023/05/02 06:41:05;;;;;;;43.03;17.80;;;10.10;99.90;;;10.88;100.00;98627.09;4922235;29;20764;-75
2023/05/02 06:43:35;;;;;;;38.57;19.33;;;10.20;99.90;;;10.95;100.00;98638.47;4922564;29;20568;-76
2023/05/02 06:46:06;;;;;;;36.23;17.57;;;10.30;99.90;;;11.01;100.00;98635.16;4924504;29;20478;-75
2023/05/02 06:48:38;;;;;;;32.63;18.20;;;10.40;99.90;;;11.07;100.00;98640.50;4921426;29;20993;-76
2023/05/02 06:51:08;;;;;;;32.17;16.70;;;10.40;99.90;;;11.14;100.00;98643.25;4921858;29;20469;-75
2023/05/02 06:53:38;;;;;;;33.40;16.53;;;10.50;99.90;;;11.21;100.00;98646.78;4923031;29;20581;-75
2023/05/02 06:56:09;;;;;;;27.43;16.80;;;10.50;99.90;;;11.28;100.00;98658.16;4922176;29;21080;-75
2023/05/02 06:58:38;;;;;;;28.03;15.40;;;10.70;99.90;;;11.35;100.00;98650.44;4924900;29;21597;-76
2023/05/02 07:01:07;;;;;;;28.53;15.87;;;10.70;99.90;;;11.39;100.00;98655.13;4924145;29;20462;-75
2023/05/02 07:03:40;;;;;;;25.73;14.53;;;10.80;99.90;;;11.42;100.00;98659.22;4921416;29;21291;-75
2023/05/02 07:06:09;;;;;;;27.87;15.97;;;10.80;99.90;;;11.45;100.00;98657.03;4923988;29;21000;-76
2023/05/02 07:08:39;;;;;;;27.63;16.73;;;10.80;99.90;;;11.51;100.00;98664.22;4922878;29;20474;-76
2023/05/02 07:11:08;;;;;;;29.00;14.70;;;10.90;99.90;;;11.56;100.00;98661.84;4919825;29;20536;-76
2023/05/02 07:13:38;;;;;;;30.30;15.20;;;11.00;99.90;;;11.61;100.00;98666.56;4925578;29;20579;-76
2023/05/02 07:16:09;;;;;;;23.67;13.87;;;11.00;99.90;;;11.67;100.00;98665.03;4920490;29;20488;-76
2023/05/02 07:18:41;;;;;;;25.70;14.30;;;11.00;99.90;;;11.72;100.00;98670.59;4922653;29;20473;-76
2023/05/02 07:21:11;;;;;;;25.33;13.57;;;11.00;99.90;;;11.75;100.00;98659.75;4922771;29;20801;-75
2023/05/02 07:23:40;;;;;;;23.70;14.27;;;11.20;99.90;;;11.78;100.00;98664.63;4923190;29;20584;-75
2023/05/02 07:26:11;;;;;;;26.40;14.10;;;11.20;99.90;;;11.87;100.00;98660.97;4920840;29;20475;-75
2023/05/02 07:28:41;;;;;;;24.00;14.40;;;11.20;99.90;;;11.92;100.00;98671.69;4922707;29;20470;-75
2023/05/02 07:31:11;;;;;;;26.73;13.40;;;11.30;99.90;;;11.97;100.00;98674.59;4921945;29;20557;-76
2023/05/02 07:33:41;;;;;;;24.90;13.67;;;11.30;99.90;;;12.02;100.00;98682.72;4920007;29;20976;-75
2023/05/02 07:36:12;;;;;;;44.37;22.00;;;11.50;99.90;;;12.09;100.00;98675.78;4923289;29;21037;-75
2023/05/02 07:38:42;;;;;;;22.10;13.27;;;11.50;99.90;;;12.16;100.00;98684.53;4918446;29;21012;-76
2023/05/02 07:41:15;;;;;;;22.90;11.40;;;11.60;99.90;;;12.18;100.00;98677.31;4922627;29;20513;-75
2023/05/02 07:43:44;;;;;;;25.40;13.13;;;11.60;99.90;;;12.23;100.00;98674.94;4920341;29;20482;-76
2023/05/02 07:46:13;;;;;;;22.03;10.37;;;11.70;99.90;;;12.27;100.00;98678.03;4921481;29;20471;-74
2023/05/02 07:48:44;;;;;;;22.00;12.20;;;11.70;99.90;;;12.31;100.00;98680.13;4923682;29;20474;-75
2023/05/02 07:51:14;;;;;;;15.80;9.90;;;11.80;99.90;;;12.34;100.00;98687.63;4922015;29;20474;-75
2023/05/02 07:53:45;;;;;;;21.63;12.43;;;11.80;99.90;;;12.37;100.00;98674.13;4916965;29;21012;-75
2023/05/02 07:56:15;;;;;;;17.80;10.00;;;11.90;99.90;;;12.44;100.00;98680.28;4922621;29;20454;-75
2023/05/02 07:58:45;;;;;;;24.17;11.97;;;11.90;99.90;;;12.46;100.00;98682.72;4924548;29;20551;-76
2023/05/02 08:01:16;;;;;;;18.77;10.67;;;12.00;99.90;;;12.50;100.00;98689.22;4924361;29;20499;-76
2023/05/02 08:03:48;;;;;;;23.40;11.80;;;11.80;99.90;;;12.53;100.00;98691.47;4924132;29;21250;-75
2023/05/02 08:06:18;;;;;;;22.67;11.93;;;11.90;99.90;;;12.58;100.00;98697.81;4924071;29;20502;-76
2023/05/02 08:08:47;;;;;;;21.47;12.27;;;11.90;99.90;;;12.61;100.00;98689.56;4926909;29;20493;-76
2023/05/02 08:11:17;;;;;;;20.47;12.00;;;12.00;99.90;;;12.62;100.00;98695.63;4927272;29;21222;-76
2023/05/02 08:13:47;;;;;;;25.53;13.10;;;12.10;99.90;;;12.63;100.00;98699.88;4928980;29;20468;-76
2023/05/02 08:16:17;;;;;;;20.87;11.67;;;12.10;99.90;;;12.70;100.00;98702.59;4929850;29;20458;-75
2023/05/02 08:18:48;;;;;;;22.33;11.40;;;12.10;99.90;;;12.74;100.00;98709.88;4927288;29;20558;-75
2023/05/02 08:21:18;;;;;;;20.20;11.60;;;12.20;99.90;;;12.80;100.00;98710.97;4928457;29;20538;-76
2023/05/02 08:23:49;;;;;;;25.20;12.60;;;12.20;99.90;;;12.83;100.00;98723.72;4927062;29;20553;-75
2023/05/02 08:26:20;;;;;;;20.70;11.03;;;12.20;99.90;;;12.85;100.00;98719.91;4925188;29;21419;-76
2023/05/02 08:28:51;;;;;;;24.40;11.87;;;12.20;99.90;;;12.84;100.00;98718.28;4925222;29;20465;-75
2023/05/02 08:31:20;;;;;;;17.97;10.47;;;12.30;99.90;;;12.87;100.00;98727.63;4925233;29;20480;-76
2023/05/02 08:33:52;;;;;;;16.57;9.67;;;12.20;99.90;;;12.87;100.00;98727.63;4924790;29;20466;-76
2023/05/02 08:36:22;;;;;;;17.33;9.53;;;12.30;99.90;;;12.89;100.00;98730.84;4928158;29;20537;-75
2023/05/02 08:38:52;;;;;;;16.17;9.03;;;12.30;99.90;;;12.91;100.00;98737.53;4927045;29;20477;-75
2023/05/02 08:41:24;;;;;;;24.13;9.80;;;12.40;99.90;;;12.92;100.00;98738.34;4926708;29;20470;-75
2023/05/02 08:43:54;;;;;;;18.20;8.73;;;12.40;99.90;;;12.98;100.00;98742.91;4927245;29;21036;-76
2023/05/02 08:46:25;;;;;;;18.90;8.90;;;12.40;99.90;;;13.02;100.00;98733.63;4928886;29;20474;-75
2023/05/02 08:49:00;;;;;;;13.57;8.03;;;12.40;99.90;;;13.01;100.00;98732.84;4927930;29;20466;-76
2023/05/02 08:51:32;;;;;;;12.33;6.93;;;12.50;99.90;;;13.06;100.00;98737.50;4928064;29;20549;-76
2023/05/02 08:54:04;;;;;;;9.90;6.40;;;12.50;99.90;;;13.10;100.00;98737.00;4922624;29;20492;-76
2023/05/02 08:56:34;;;;;;;11.77;7.07;;;12.60;99.90;;;13.16;100.00;98735.44;4924020;29;20510;-76
2023/05/02 08:59:04;;;;;;;17.20;6.73;;;12.60;99.90;;;13.19;100.00;98729.78;4924452;29;21080;-76
2023/05/02 09:01:36;;;;;;;15.20;7.73;;;12.70;99.90;;;13.23;100.00;98741.56;4926480;29;20474;-75
2023/05/02 09:04:07;;;;;;;17.53;5.80;;;12.80;99.90;;;13.28;100.00;98738.38;4923606;29;20491;-76
2023/05/02 09:06:38;;;;;;;8.00;5.37;;;12.80;99.90;;;13.36;100.00;98736.44;4924230;29;20499;-76
2023/05/02 09:09:07;;;;;;;13.40;5.57;;;12.90;99.90;;;13.40;100.00;98745.56;4924781;29;20478;-76
2023/05/02 09:11:36;;;;;;;7.43;4.77;;;12.90;99.90;;;13.45;100.00;98745.84;4923099;29;20502;-76
2023/05/02 09:14:17;;;;;;;9.10;5.47;;;12.90;99.90;;;13.48;100.00;98749.91;4920850;29;20648;-75
2023/05/02 09:16:48;;;;;;;9.60;5.33;;;12.90;99.90;;;13.53;100.00;98750.97;4923331;29;20462;-76
2023/05/02 09:19:27;;;;;;;10.10;5.67;;;12.90;99.90;;;13.60;100.00;98754.47;4924803;29;20479;-76
2023/05/02 09:22:01;;;;;;;10.53;6.20;;;13.00;99.90;;;13.60;100.00;98754.47;4922678;29;20475;-75
2023/05/02 09:24:32;;;;;;;10.83;6.40;;;13.00;99.90;;;13.66;100.00;98757.34;4922223;29;20505;-75
2023/05/02 09:27:03;;;;;;;7.33;5.00;;;13.00;99.90;;;13.68;100.00;98756.13;4922542;29;20479;-76
2023/05/02 09:29:36;;;;;;;13.47;5.93;;;13.00;99.90;;;13.77;100.00;98754.19;4922621;29;20455;-75
2023/05/02 09:32:06;;;;;;;17.17;9.70;;;13.10;99.90;;;13.81;100.00;98753.66;4923365;29;20546;-76
2023/05/02 09:34:38;;;;;;;12.10;6.87;;;13.20;99.90;;;13.84;100.00;98761.16;4922654;29;20473;-76
2023/05/02 09:37:11;;;;;;;10.97;5.93;;;13.20;99.90;;;13.85;100.00;98761.97;4923749;29;20523;-75
2023/05/02 09:39:42;;;;;;;9.73;5.70;;;13.20;99.90;;;13.86;100.00;98763.56;4925680;29;20955;-76
2023/05/02 09:42:11;;;;;;;11.30;6.00;;;13.10;99.90;;;13.90;100.00;98770.91;4926603;29;20675;-75
2023/05/02 09:44:42;;;;;;;14.27;7.03;;;13.20;99.90;;;13.97;100.00;98768.31;4924307;29;20534;-75
2023/05/02 09:47:26;;;;;;;12.10;6.10;;;13.30;99.90;;;14.00;100.00;98768.75;4927746;29;20471;-76
2023/05/02 09:49:58;;;;;;;13.50;6.43;;;13.40;99.90;;;14.07;100.00;98774.06;4926088;29;20558;-76
2023/05/02 09:52:28;;;;;;;11.40;6.60;;;13.40;99.90;;;14.13;100.00;98773.28;4924540;29;20546;-75
2023/05/02 09:54:58;;;;;;;10.87;6.40;;;13.50;99.90;;;14.18;100.00;98765.66;4928194;29;21234;-75
2023/05/02 09:57:41;;;;;;;9.33;6.03;;;13.50;99.90;;;14.22;100.00;98777.41;4925522;29;20834;-75
2023/05/02 10:00:18;;;;;;;10.87;6.40;;;13.60;99.90;;;14.27;100.00;98772.38;4926461;29;20478;-75
2023/05/02 10:02:50;;;;;;;11.80;5.87;;;13.60;99.90;;;14.29;100.00;98774.81;4927342;29;20494;-75
2023/05/02 10:05:23;;;;;;;8.93;4.70;;;13.70;99.90;;;14.33;100.00;98765.53;4924617;29;20597;-75
2023/05/02 10:07:56;;;;;;;10.17;5.80;;;13.70;99.90;;;14.39;100.00;98775.31;4925933;29;20555;-76
2023/05/02 10:10:27;;;;;;;10.47;5.93;;;13.70;99.90;;;14.39;100.00;98768.25;4926302;29;20549;-76
2023/05/02 10:12:56;;;;;;;8.53;5.00;;;13.70;99.90;;;14.42;100.00;98767.84;4925203;29;20582;-76
2023/05/02 10:15:31;;;;;;;9.30;5.57;;;13.70;99.90;;;14.50;100.00;98772.97;4924182;29;20477;-76
2023/05/02 10:18:03;;;;;;;29.40;16.17;;;13.80;99.90;;;14.55;100.00;98767.91;4924376;29;20510;-76
2023/05/02 10:20:43;;;;;;;13.97;7.10;;;13.90;99.90;;;14.63;100.00;98772.22;4925318;29;21004;-75
2023/05/02 10:23:16;;;;;;;10.63;5.73;;;13.90;99.90;;;14.66;100.00;98771.00;4926252;29;20569;-76
2023/05/02 10:25:47;;;;;;;10.20;6.40;;;14.00;99.90;;;14.74;100.00;98770.84;4925659;29;20493;-76
2023/05/02 10:28:17;;;;;;;11.10;6.63;;;14.10;99.90;;;14.79;100.00;98778.97;4925847;29;20467;-76
2023/05/02 10:30:48;;;;;;;9.90;5.83;;;14.10;99.90;;;14.74;100.00;98770.84;4923257;29;20590;-76
2023/05/02 10:33:19;;;;;;;11.50;6.43;;;14.10;99.90;;;14.70;100.00;98772.25;4926060;29;20447;-76